createdAt,value
2018-04-07T00:01:30.817Z,4.40
2018-04-07T00:03:58.630Z,4.30
2018-04-07T00:06:27.154Z,4.60
2018-04-07T00:08:54.914Z,4.50
2018-04-07T00:11:22.726Z,4.60
2018-04-07T00:13:50.490Z,4.60
2018-04-07T00:16:18.254Z,4.60
2018-04-07T00:18:46.839Z,4.60
2018-04-07T00:21:15.366Z,4.70
2018-04-07T00:23:43.144Z,4.70
2018-04-07T00:26:10.957Z,4.70
2018-04-07T00:28:39.498Z,4.70
2018-04-07T00:31:07.278Z,4.60
2018-04-07T00:33:36.007Z,4.50
2018-04-07T00:36:03.792Z,4.50
2018-04-07T00:38:31.554Z,4.50
2018-04-07T00:40:59.371Z,4.50
2018-04-07T00:43:28.566Z,4.50
2018-04-07T00:45:56.342Z,4.40
2018-04-07T00:48:24.167Z,4.50
2018-04-07T00:50:51.935Z,4.50
2018-04-07T00:53:20.564Z,4.30
2018-04-07T00:55:48.375Z,4.30
2018-04-07T00:58:16.195Z,4.20
2018-04-07T01:00:43.969Z,4.20
2018-04-07T01:03:11.806Z,4.10
2018-04-07T01:05:40.368Z,4.00
2018-04-07T01:08:09.047Z,3.90
2018-04-07T01:10:38.224Z,3.90
2018-04-07T01:13:06.011Z,3.90
2018-04-07T01:15:33.792Z,3.90
2018-04-07T01:18:01.607Z,3.90
2018-04-07T01:20:31.776Z,3.80
2018-04-07T01:23:00.770Z,3.80
2018-04-07T01:25:30.597Z,3.70
2018-04-07T01:28:02.152Z,3.70
2018-04-07T01:30:30.116Z,3.70
2018-04-07T01:32:57.962Z,3.70
2018-04-07T01:35:25.721Z,3.70
2018-04-07T01:37:53.575Z,3.70
2018-04-07T01:40:21.345Z,3.70
2018-04-07T01:42:49.112Z,3.70
2018-04-07T01:45:16.938Z,3.60
2018-04-07T01:47:45.472Z,3.40
2018-04-07T01:50:13.231Z,3.30
2018-04-07T01:52:41.057Z,3.30
2018-04-07T01:55:08.823Z,3.30
2018-04-07T01:57:36.596Z,3.30
2018-04-07T02:00:04.435Z,3.30
2018-04-07T02:02:32.962Z,3.30
2018-04-07T02:05:00.720Z,3.30
2018-04-07T02:07:28.574Z,3.40
2018-04-07T02:09:56.347Z,3.40
2018-04-07T02:12:24.161Z,3.40
2018-04-07T02:14:51.970Z,3.50
2018-04-07T02:17:19.727Z,3.50
2018-04-07T02:19:47.478Z,3.50
2018-04-07T02:22:15.290Z,3.60
2018-04-07T02:24:43.070Z,3.60
2018-04-07T02:27:11.586Z,3.60
2018-04-07T02:29:39.410Z,3.60
2018-04-07T02:32:07.931Z,3.60
2018-04-07T02:34:35.686Z,3.60
2018-04-07T02:37:03.509Z,3.60
2018-04-07T02:39:32.029Z,3.60
2018-04-07T02:42:00.560Z,3.50
2018-04-07T02:44:28.391Z,3.50
2018-04-07T02:46:56.143Z,3.50
2018-04-07T02:49:23.899Z,3.40
2018-04-07T02:51:51.709Z,3.30
2018-04-07T02:54:19.467Z,3.40
2018-04-07T02:56:47.252Z,3.30
2018-04-07T02:59:15.067Z,3.20
2018-04-07T03:01:42.840Z,3.10
2018-04-07T03:04:10.595Z,3.10
2018-04-07T03:06:38.563Z,3.00
2018-04-07T03:09:06.326Z,3.00
2018-04-07T03:11:34.094Z,3.00
2018-04-07T03:14:01.900Z,3.00
2018-04-07T03:16:29.673Z,3.00
2018-04-07T03:18:57.434Z,3.10
2018-04-07T03:21:25.251Z,3.10
2018-04-07T03:23:53.016Z,3.10
2018-04-07T03:26:20.786Z,3.10
2018-04-07T03:28:48.604Z,3.20
2018-04-07T03:31:17.388Z,3.20
2018-04-07T03:33:45.149Z,3.10
2018-04-07T03:36:12.976Z,3.10
2018-04-07T03:38:41.491Z,3.10
2018-04-07T03:41:09.245Z,3.10
2018-04-07T03:43:37.061Z,3.10
2018-04-07T03:46:04.841Z,3.00
2018-04-07T03:48:34.008Z,3.00
2018-04-07T03:51:01.842Z,3.00
2018-04-07T03:53:29.649Z,3.00
2018-04-07T03:55:58.173Z,2.90
2018-04-07T03:58:26.005Z,2.90
2018-04-07T04:00:54.557Z,2.90
2018-04-07T04:03:22.327Z,2.80
2018-04-07T04:05:50.242Z,2.80
2018-04-07T04:08:17.997Z,2.80
2018-04-07T04:10:45.750Z,2.80
2018-04-07T04:13:13.565Z,2.90
2018-04-07T04:15:41.342Z,2.80
2018-04-07T04:18:09.135Z,2.90
2018-04-07T04:20:36.969Z,2.80
2018-04-07T04:23:04.725Z,2.80
2018-04-07T04:25:32.498Z,2.90
2018-04-07T04:28:01.090Z,2.80
2018-04-07T04:30:29.615Z,2.80
2018-04-07T04:32:57.381Z,2.70
2018-04-07T04:35:25.182Z,2.80
2018-04-07T04:37:53.707Z,3.00
2018-04-07T04:40:22.236Z,3.00
2018-04-07T04:42:50.048Z,3.00
2018-04-07T04:45:17.816Z,3.10
2018-04-07T04:47:45.580Z,3.10
2018-04-07T04:50:13.406Z,3.10
2018-04-07T04:52:41.225Z,3.30
2018-04-07T04:55:08.994Z,4.00
2018-04-07T04:57:36.824Z,4.90
2018-04-07T05:00:04.608Z,5.70
2018-04-07T05:02:32.408Z,6.40
2018-04-07T05:05:00.998Z,7.70
2018-04-07T05:07:29.532Z,8.00
2018-04-07T05:09:57.303Z,8.00
2018-04-07T05:12:25.115Z,8.00
2018-04-07T05:14:52.879Z,8.20
2018-04-07T05:17:20.644Z,8.80
2018-04-07T05:19:48.478Z,9.10
2018-04-07T05:22:17.054Z,10.20
2018-04-07T05:24:45.593Z,10.40
2018-04-07T05:27:13.403Z,10.40
2018-04-07T05:29:41.979Z,11.00
2018-04-07T05:32:10.510Z,11.60
2018-04-07T05:34:38.337Z,11.60
2018-04-07T05:37:06.859Z,13.40
2018-04-07T05:39:34.637Z,13.40
2018-04-07T05:42:02.465Z,13.90
2018-04-07T05:44:30.217Z,14.70
2018-04-07T05:46:57.993Z,15.90
2018-04-07T05:49:25.816Z,16.00
2018-04-07T05:51:54.356Z,17.10
2018-04-07T05:54:22.115Z,17.00
2018-04-07T05:56:49.961Z,17.30
2018-04-07T05:59:18.491Z,18.10
2018-04-07T06:01:46.264Z,18.10
2018-04-07T06:04:14.083Z,18.10
2018-04-07T06:06:41.870Z,18.20
2018-04-07T06:09:09.627Z,18.10
2018-04-07T06:11:37.446Z,19.00
2018-04-07T06:14:05.204Z,19.60
2018-04-07T06:16:33.018Z,19.70
2018-04-07T06:19:01.630Z,19.70
2018-04-07T06:21:30.166Z,20.30
2018-04-07T06:23:57.928Z,20.30
2018-04-07T06:26:25.750Z,20.30
2018-04-07T06:28:53.561Z,20.50
2018-04-07T06:31:21.323Z,20.60
2018-04-07T06:33:49.155Z,21.90
2018-04-07T06:36:16.947Z,22.70
2018-04-07T06:38:44.719Z,21.90
2018-04-07T06:41:12.539Z,20.90
2018-04-07T06:43:40.311Z,20.60
2018-04-07T06:46:09.069Z,20.80
2018-04-07T06:48:36.927Z,21.00
2018-04-07T06:51:05.476Z,21.60
2018-04-07T06:53:33.275Z,21.60
2018-04-07T06:56:01.329Z,21.70
2018-04-07T06:58:29.844Z,22.10
2018-04-07T07:00:57.600Z,22.00
2018-04-07T07:03:25.414Z,22.00
2018-04-07T07:05:53.163Z,22.00
2018-04-07T07:08:20.931Z,21.90
2018-04-07T07:10:48.784Z,22.00
2018-04-07T07:13:16.567Z,22.80
2018-04-07T07:15:44.376Z,23.20
2018-04-07T07:18:12.201Z,22.30
2018-04-07T07:20:40.730Z,21.20
2018-04-07T07:23:08.521Z,21.20
2018-04-07T07:25:36.364Z,22.30
2018-04-07T07:28:04.165Z,24.00
2018-04-07T07:30:32.713Z,26.10
2018-04-07T07:33:00.533Z,26.00
2018-04-07T07:35:28.310Z,24.80
2018-04-07T07:37:56.067Z,24.50
2018-04-07T07:40:23.894Z,23.60
2018-04-07T07:42:51.662Z,22.90
2018-04-07T07:45:20.186Z,24.40
2018-04-07T07:47:47.995Z,24.40
2018-04-07T07:50:15.745Z,23.60
2018-04-07T07:52:43.506Z,23.40
2018-04-07T07:55:11.321Z,23.60
2018-04-07T07:57:39.094Z,23.90
2018-04-07T08:00:06.848Z,25.10
2018-04-07T08:02:34.666Z,25.80
2018-04-07T08:05:02.440Z,24.60
2018-04-07T08:07:30.983Z,24.50
2018-04-07T08:09:58.813Z,24.40
2018-04-07T08:12:26.576Z,24.70
2018-04-07T08:14:54.357Z,24.90
2018-04-07T08:17:22.226Z,25.60
2018-04-07T08:19:50.000Z,25.60
2018-04-07T08:22:17.842Z,26.10
2018-04-07T08:24:45.654Z,26.70
2018-04-07T08:27:13.406Z,26.70
2018-04-07T08:29:41.199Z,26.60
2018-04-07T08:32:09.036Z,26.20
2018-04-07T08:34:36.885Z,28.20
2018-04-07T08:37:04.645Z,28.10
2018-04-07T08:39:32.552Z,27.00
2018-04-07T08:42:00.307Z,26.50
2018-04-07T08:44:28.857Z,24.20
2018-04-07T08:46:56.669Z,24.10
2018-04-07T08:49:24.435Z,24.30
2018-04-07T08:51:52.226Z,24.70
2018-04-07T08:54:20.053Z,24.80
2018-04-07T08:56:47.887Z,24.90
2018-04-07T08:59:16.444Z,24.50
2018-04-07T09:01:44.266Z,24.50
2018-04-07T09:04:13.107Z,24.00
2018-04-07T09:06:40.895Z,24.00
2018-04-07T09:09:09.499Z,24.90
2018-04-07T09:11:37.275Z,24.90
2018-04-07T09:14:05.045Z,24.00
2018-04-07T09:16:32.874Z,22.70
2018-04-07T09:19:00.675Z,21.80
2018-04-07T09:21:28.763Z,21.30
2018-04-07T09:23:56.607Z,20.00
2018-04-07T09:26:24.409Z,18.40
2018-04-07T09:28:52.982Z,17.40
2018-04-07T09:31:25.637Z,17.30
2018-04-07T09:33:53.423Z,17.40
2018-04-07T09:36:22.047Z,17.10
2018-04-07T09:38:49.884Z,17.10
2018-04-07T09:41:18.425Z,17.50
2018-04-07T09:43:46.214Z,17.50
2018-04-07T09:46:14.828Z,16.90
2018-04-07T09:48:42.599Z,16.90
2018-04-07T09:51:10.400Z,16.50
2018-04-07T09:53:38.224Z,15.90
2018-04-07T09:56:06.000Z,15.90
2018-04-07T09:58:33.776Z,15.80
2018-04-07T10:01:02.369Z,15.80
2018-04-07T10:03:30.148Z,15.80
2018-04-07T10:05:57.934Z,16.00
2018-04-07T10:08:25.756Z,16.00
2018-04-07T10:10:53.540Z,15.70
2018-04-07T10:13:21.312Z,15.60
2018-04-07T10:15:49.924Z,15.30
2018-04-07T10:18:26.608Z,15.30
2018-04-07T10:20:54.462Z,15.30
2018-04-07T10:23:22.255Z,15.40
2018-04-07T10:25:50.803Z,15.90
2018-04-07T10:28:18.650Z,15.80
2018-04-07T10:30:47.271Z,16.10
2018-04-07T10:33:15.825Z,16.10
2018-04-07T10:35:44.251Z,16.10
2018-04-07T10:38:12.289Z,15.90
2018-04-07T10:40:40.064Z,15.80
2018-04-07T10:43:07.951Z,15.90
2018-04-07T10:45:36.559Z,15.80
2018-04-07T10:48:05.096Z,15.80
2018-04-07T10:50:32.935Z,15.80
2018-04-07T10:53:00.724Z,15.90
2018-04-07T10:55:28.501Z,16.10
2018-04-07T10:57:56.347Z,16.10
2018-04-07T11:00:24.597Z,16.10
2018-04-07T11:02:52.628Z,16.10
2018-04-07T11:05:21.238Z,16.30
2018-04-07T11:07:49.047Z,16.30
2018-04-07T11:10:17.612Z,16.10
2018-04-07T11:12:45.462Z,16.20
2018-04-07T11:15:14.012Z,16.20
2018-04-07T11:17:41.807Z,16.10
2018-04-07T11:20:09.692Z,16.40
2018-04-07T11:22:37.554Z,16.60
2018-04-07T11:25:05.348Z,16.70
2018-04-07T11:27:33.969Z,16.70
2018-04-07T11:30:01.758Z,16.70
2018-04-07T11:32:29.545Z,16.80
2018-04-07T11:34:58.157Z,16.90
2018-04-07T11:37:25.940Z,16.90
2018-04-07T11:39:53.736Z,17.00
2018-04-07T11:42:21.584Z,17.00
2018-04-07T11:44:49.381Z,17.00
2018-04-07T11:47:17.162Z,16.90
2018-04-07T11:49:45.019Z,16.90
2018-04-07T11:52:12.809Z,17.00
2018-04-07T11:54:40.598Z,17.00
2018-04-07T11:57:08.423Z,17.00
2018-04-07T11:59:36.212Z,17.00
2018-04-07T12:02:03.991Z,16.90
2018-04-07T12:04:31.820Z,17.00
2018-04-07T12:06:59.628Z,17.10
2018-04-07T12:09:27.425Z,17.20
2018-04-07T12:11:55.287Z,17.20
2018-04-07T12:14:23.108Z,17.20
2018-04-07T12:16:55.020Z,17.10
2018-04-07T12:19:22.972Z,17.30
2018-04-07T12:21:50.778Z,17.30
2018-04-07T12:24:18.560Z,17.30
2018-04-07T12:26:46.467Z,17.30
2018-04-07T12:29:14.268Z,17.30
2018-04-07T12:31:42.057Z,17.30
2018-04-07T12:34:09.912Z,17.40
2018-04-07T12:36:37.684Z,17.50
2018-04-07T12:39:06.227Z,17.70
2018-04-07T12:41:34.081Z,17.70
2018-04-07T12:44:01.899Z,17.60
2018-04-07T12:46:30.487Z,17.80
2018-04-07T12:48:59.158Z,17.90
2018-04-07T12:51:26.943Z,17.90
2018-04-07T12:53:55.506Z,17.90
2018-04-07T12:56:27.663Z,17.80
2018-04-07T12:58:55.830Z,17.80
2018-04-07T13:01:23.605Z,17.70
2018-04-07T13:03:51.511Z,17.70
2018-04-07T13:06:19.283Z,17.80
2018-04-07T13:08:47.090Z,17.90
2018-04-07T13:11:14.921Z,18.00
2018-04-07T13:13:42.692Z,17.80
2018-04-07T13:16:10.472Z,17.80
2018-04-07T13:18:38.313Z,17.80
2018-04-07T13:21:06.095Z,18.00
2018-04-07T13:23:33.879Z,18.10
2018-04-07T13:26:02.471Z,18.40
2018-04-07T13:28:31.046Z,18.30
2018-04-07T13:30:58.838Z,18.30
2018-04-07T13:33:38.368Z,18.40
2018-04-07T13:35:55.314Z,18.40
2018-04-07T13:38:23.094Z,18.40
2018-04-07T13:40:50.933Z,18.40
2018-04-07T13:43:18.710Z,18.40
2018-04-07T13:45:46.492Z,18.50
2018-04-07T13:48:15.106Z,18.40
2018-04-07T13:50:42.878Z,18.40
2018-04-07T13:53:10.663Z,18.50
2018-04-07T13:55:38.510Z,18.50
2018-04-07T13:58:06.295Z,18.50
2018-04-07T14:00:34.087Z,18.50
2018-04-07T14:03:02.691Z,18.50
2018-04-07T14:05:30.461Z,18.50
2018-04-07T14:07:58.373Z,18.60
2018-04-07T14:10:26.248Z,18.70
2018-04-07T14:12:54.160Z,18.60
2018-04-07T14:15:21.946Z,18.70
2018-04-07T14:17:49.775Z,18.70
2018-04-07T14:20:17.563Z,18.70
2018-04-07T14:22:45.348Z,18.70
2018-04-07T14:25:13.272Z,18.80
2018-04-07T14:27:41.039Z,18.80
2018-04-07T14:30:08.806Z,18.80
2018-04-07T14:32:36.652Z,18.80
2018-04-07T14:35:04.438Z,18.70
2018-04-07T14:37:32.230Z,18.70
2018-04-07T14:40:00.111Z,18.80
2018-04-07T14:42:27.905Z,18.80
2018-04-07T14:44:55.673Z,18.80
2018-04-07T14:47:23.516Z,18.80
2018-04-07T14:49:52.052Z,18.70
2018-04-07T14:52:19.838Z,18.70
2018-04-07T14:54:47.694Z,18.70
2018-04-07T14:57:15.477Z,18.70
2018-04-07T14:59:44.036Z,18.60
2018-04-07T15:02:11.886Z,18.60
2018-04-07T15:04:39.706Z,18.60
2018-04-07T15:07:07.480Z,18.60
2018-04-07T15:09:35.351Z,18.60
2018-04-07T15:12:03.120Z,18.60
2018-04-07T15:14:30.929Z,18.60
2018-04-07T15:16:59.703Z,18.60
2018-04-07T15:19:27.496Z,18.60
2018-04-07T15:21:56.033Z,18.60
2018-04-07T15:24:23.878Z,18.60
2018-04-07T15:26:51.658Z,18.70
2018-04-07T15:29:19.456Z,18.70
2018-04-07T15:31:48.128Z,18.70
2018-04-07T15:34:16.708Z,18.70
2018-04-07T15:36:45.266Z,18.60
2018-04-07T15:39:13.094Z,18.60
2018-04-07T15:41:40.905Z,18.60
2018-04-07T15:44:08.691Z,18.50
2018-04-07T15:46:37.298Z,18.40
2018-04-07T15:49:05.127Z,18.40
2018-04-07T15:51:33.659Z,18.50
2018-04-07T15:54:01.516Z,18.50
2018-04-07T15:56:29.300Z,18.50
2018-04-07T15:58:57.084Z,18.50
2018-04-07T16:01:24.941Z,18.40
2018-04-07T16:03:52.707Z,18.40
2018-04-07T16:06:20.499Z,18.30
2018-04-07T16:08:49.123Z,18.20
2018-04-07T16:11:16.930Z,18.20
2018-04-07T16:13:45.491Z,18.20
2018-04-07T16:16:13.613Z,18.20
2018-04-07T16:18:41.393Z,18.20
2018-04-07T16:21:09.178Z,18.20
2018-04-07T16:23:37.033Z,18.20
2018-04-07T16:26:04.812Z,18.10
2018-04-07T16:28:32.589Z,18.10
2018-04-07T16:31:00.448Z,18.00
2018-04-07T16:33:28.271Z,18.00
2018-04-07T16:35:56.058Z,18.00
2018-04-07T16:38:23.908Z,17.90
2018-04-07T16:40:51.685Z,17.90
2018-04-07T16:43:20.228Z,17.80
2018-04-07T16:45:48.071Z,17.80
2018-04-07T16:48:18.143Z,17.70
2018-04-07T16:50:46.755Z,17.70
2018-04-07T16:53:14.699Z,17.70
2018-04-07T16:55:42.861Z,17.50
2018-04-07T16:58:10.662Z,17.50
2018-04-07T17:00:38.585Z,17.40
2018-04-07T17:03:07.468Z,17.30
2018-04-07T17:05:36.556Z,17.20
2018-04-07T17:08:04.406Z,17.30
2018-04-07T17:10:32.206Z,17.20
2018-04-07T17:13:00.015Z,17.20
2018-04-07T17:15:27.866Z,17.10
2018-04-07T17:17:55.835Z,17.00
2018-04-07T17:20:23.624Z,16.90
2018-04-07T17:22:51.464Z,16.80
2018-04-07T17:25:19.242Z,16.60
2018-04-07T17:27:47.558Z,16.60
2018-04-07T17:30:15.401Z,16.50
2018-04-07T17:32:43.219Z,16.50
2018-04-07T17:35:11.762Z,16.40
2018-04-07T17:37:39.617Z,16.40
2018-04-07T17:40:07.398Z,16.20
2018-04-07T17:42:35.180Z,16.10
2018-04-07T17:45:03.815Z,16.00
2018-04-07T17:47:31.603Z,16.00
2018-04-07T17:49:59.410Z,16.00
2018-04-07T17:52:27.330Z,16.00
2018-04-07T17:54:55.143Z,15.90
2018-04-07T17:57:22.913Z,15.90
2018-04-07T17:59:50.800Z,15.90
2018-04-07T18:02:19.493Z,15.80
2018-04-07T18:04:47.352Z,15.80
2018-04-07T18:07:15.268Z,15.80
2018-04-07T18:09:43.226Z,15.70
2018-04-07T18:12:12.012Z,15.60
2018-04-07T18:14:40.608Z,15.50
2018-04-07T18:17:08.539Z,15.50
2018-04-07T18:19:37.107Z,15.50
2018-04-07T18:22:05.274Z,15.40
2018-04-07T18:24:33.088Z,15.50
2018-04-07T18:27:01.905Z,15.40
2018-04-07T18:29:29.760Z,15.40
2018-04-07T18:31:57.556Z,15.30
2018-04-07T18:34:25.383Z,15.20
2018-04-07T18:36:53.250Z,15.10
2018-04-07T18:39:21.040Z,15.00
2018-04-07T18:41:51.691Z,15.00
2018-04-07T18:44:21.291Z,14.80
2018-04-07T18:46:49.176Z,14.80
2018-04-07T18:49:17.129Z,14.80
2018-04-07T18:51:46.174Z,14.70
2018-04-07T18:54:14.091Z,14.60
2018-04-07T18:56:42.718Z,14.60
2018-04-07T18:59:10.647Z,14.60
2018-04-07T19:01:38.526Z,14.50
2018-04-07T19:04:06.426Z,14.40
2018-04-07T19:06:35.260Z,14.20
2018-04-07T19:09:03.209Z,14.20
2018-04-07T19:11:31.817Z,14.10
2018-04-07T19:13:59.844Z,14.10
2018-04-07T19:16:28.520Z,13.90
2018-04-07T19:18:56.373Z,13.90
2018-04-07T19:21:24.717Z,13.90
2018-04-07T19:23:52.579Z,13.90
2018-04-07T19:26:20.459Z,13.80
2018-04-07T19:28:48.531Z,13.70
2018-04-07T19:31:16.508Z,13.70
2018-04-07T19:33:44.382Z,13.70
2018-04-07T19:36:12.355Z,13.70
2018-04-07T19:38:40.569Z,13.70
2018-04-07T19:41:08.498Z,13.70
2018-04-07T19:43:37.234Z,13.70
2018-04-07T19:46:05.127Z,13.70
2018-04-07T19:48:33.121Z,13.70
2018-04-07T19:51:01.099Z,13.60
2018-04-07T19:53:29.974Z,13.50
2018-04-07T19:55:58.629Z,13.40
2018-04-07T19:58:26.557Z,13.40
2018-04-07T20:00:54.443Z,13.40
2018-04-07T20:03:22.354Z,13.30
2018-04-07T20:05:51.275Z,13.20
2018-04-07T20:08:19.205Z,13.20
2018-04-07T20:10:47.475Z,13.20
2018-04-07T20:13:16.244Z,13.00
2018-04-07T20:15:44.918Z,12.90
2018-04-07T20:18:13.376Z,12.90
2018-04-07T20:20:42.275Z,12.90
2018-04-07T20:23:11.411Z,12.70
2018-04-07T20:25:40.047Z,12.60
2018-04-07T20:28:07.980Z,12.60
2018-04-07T20:30:35.890Z,12.50
2018-04-07T20:33:04.337Z,12.50
2018-04-07T20:35:32.637Z,12.50
2018-04-07T20:38:00.505Z,12.50
2018-04-07T20:40:28.377Z,12.50
2018-04-07T20:42:57.046Z,12.50
2018-04-07T20:45:24.914Z,12.50
2018-04-07T20:47:52.753Z,12.40
2018-04-07T20:50:20.642Z,12.40
2018-04-07T20:52:48.472Z,12.30
2018-04-07T20:55:16.366Z,12.30
2018-04-07T20:57:44.295Z,12.20
2018-04-07T21:00:12.913Z,12.10
2018-04-07T21:02:40.790Z,12.10
2018-04-07T21:05:08.721Z,12.10
2018-04-07T21:07:36.540Z,12.00
2018-04-07T21:10:04.426Z,12.00
2018-04-07T21:12:33.194Z,11.90
2018-04-07T21:15:01.838Z,11.90
2018-04-07T21:17:29.685Z,11.90
2018-04-07T21:19:57.601Z,11.90
2018-04-07T21:22:25.435Z,11.90
2018-04-07T21:24:53.483Z,11.90
2018-04-07T21:27:21.336Z,11.80
2018-04-07T21:29:49.420Z,11.80
2018-04-07T21:32:17.244Z,11.70
2018-04-07T21:34:45.105Z,11.70
2018-04-07T21:37:12.897Z,11.70
2018-04-07T21:39:41.129Z,11.70
2018-04-07T21:42:08.970Z,11.60
2018-04-07T21:44:36.787Z,11.60
2018-04-07T21:47:05.333Z,11.60
2018-04-07T21:49:33.206Z,11.60
2018-04-07T21:52:01.095Z,11.50
2018-04-07T21:54:29.637Z,11.40
2018-04-07T21:56:57.512Z,11.40
2018-04-07T21:59:25.291Z,11.40
2018-04-07T22:01:53.878Z,11.20
2018-04-07T22:04:22.471Z,11.20
2018-04-07T22:06:51.030Z,11.20
2018-04-07T22:09:19.592Z,11.20
2018-04-07T22:11:47.443Z,11.10
2018-04-07T22:14:16.008Z,11.20
2018-04-07T22:16:43.815Z,11.20
2018-04-07T22:19:11.708Z,11.20
2018-04-07T22:21:40.310Z,11.10
2018-04-07T22:24:13.854Z,11.10
2018-04-07T22:26:41.646Z,11.10
2018-04-07T22:29:10.192Z,11.10
2018-04-07T22:31:38.061Z,11.10
2018-04-07T22:34:05.902Z,11.10
2018-04-07T22:36:33.706Z,11.00
2018-04-07T22:39:02.323Z,10.90
2018-04-07T22:41:30.108Z,10.90
2018-04-07T22:43:57.907Z,10.90
2018-04-07T22:46:26.523Z,10.80
2018-04-07T22:48:54.309Z,10.80
2018-04-07T22:51:22.097Z,10.80
2018-04-07T22:53:50.018Z,10.80
2018-04-07T22:56:17.800Z,10.80
2018-04-07T22:58:45.604Z,10.70
2018-04-07T23:01:14.205Z,10.70
2018-04-07T23:03:42.146Z,10.70
2018-04-07T23:06:09.977Z,10.80
2018-04-07T23:08:37.831Z,10.70
2018-04-07T23:11:05.618Z,10.70
2018-04-07T23:13:33.397Z,10.70
2018-04-07T23:16:02.025Z,10.60
2018-04-07T23:18:29.828Z,10.60
2018-04-07T23:20:57.601Z,10.60
2018-04-07T23:23:25.457Z,10.60
2018-04-07T23:25:53.233Z,10.50
2018-04-07T23:28:21.783Z,10.40
2018-04-07T23:30:49.625Z,10.40
2018-04-07T23:33:17.436Z,10.50
2018-04-07T23:35:45.247Z,10.40
2018-04-07T23:38:13.081Z,10.40
2018-04-07T23:40:41.626Z,10.30
2018-04-07T23:43:09.407Z,10.30
2018-04-07T23:45:38.024Z,10.40
2018-04-07T23:48:05.820Z,10.40
2018-04-07T23:50:33.593Z,10.40
2018-04-07T23:53:01.412Z,10.40
2018-04-07T23:55:29.186Z,10.40
2018-04-07T23:57:56.959Z,10.40
